Time;durP1;ratioP1;P1;durP2;ratioP2;P2;SDS_P1;SDS_P2;PMS_P1;PMS_P2;Temp;Humidity;BMP_temperature;BMP_pressure;BME280_temperature;BME280_humidity;BME280_pressure;Samples;Min_cycle;Max_cycle;Signal;HPM_P1;HPM_P2
2023/05/03 00:00:22;;;;;;;5.33;4.10;;;11.20;75.70;;;14.10;48.13;98433.28;5031032;28;20057;-43
2023/05/03 00:02:52;;;;;;;6.17;4.47;;;11.20;75.90;;;14.13;48.14;98430.31;5031961;28;20540;-44
2023/05/03 00:05:20;;;;;;;6.37;4.37;;;11.10;76.50;;;14.12;48.23;98435.81;5030717;28;20046;-44
2023/05/03 00:07:48;;;;;;;5.53;4.57;;;11.00;76.50;;;14.13;48.20;98440.16;5031955;28;20044;-45
2023/05/03 00:10:16;;;;;;;7.63;4.57;;;11.10;76.80;;;14.17;48.12;98444.16;5032184;28;20041;-44
2023/05/03 00:12:43;;;;;;;5.93;3.83;;;11.10;76.70;;;14.19;48.23;98439.53;5030710;28;20076;-45
2023/05/03 00:15:11;;;;;;;5.77;4.37;;;11.10;76.80;;;14.20;48.08;98440.34;5032166;28;20037;-44
2023/05/03 00:17:39;;;;;;;6.97;4.53;;;11.10;76.70;;;14.22;48.23;98447.19;5023824;28;20512;-45
2023/05/03 00:20:07;;;;;;;6.80;4.33;;;11.10;76.80;;;14.22;48.50;98441.84;5031995;28;20303;-47
2023/05/03 00:22:35;;;;;;;5.70;4.50;;;11.10;77.10;;;14.25;48.16;98443.34;5031550;28;20041;-46
2023/05/03 00:25:03;;;;;;;7.07;5.20;;;11.20;77.00;;;14.23;48.22;98443.53;5031596;28;20049;-45
2023/05/03 00:27:31;;;;;;;8.07;4.77;;;11.10;77.50;;;14.15;48.46;98447.03;5031667;28;20430;-46
2023/05/03 00:29:58;;;;;;;13.07;4.63;;;11.00;77.70;;;14.13;48.53;98437.47;5030036;28;20057;-46
2023/05/03 00:32:27;;;;;;;7.20;4.13;;;11.00;77.80;;;14.12;48.53;98433.97;5029940;28;20049;-43
2023/05/03 00:34:56;;;;;;;7.10;4.30;;;11.00;77.30;;;14.09;48.69;98428.09;5030239;28;20049;-43
2023/05/03 00:37:24;;;;;;;6.23;4.20;;;11.00;77.90;;;14.09;48.70;98426.25;5030585;28;20048;-44
2023/05/03 00:39:52;;;;;;;6.73;4.37;;;11.00;77.80;;;14.12;48.43;98425.09;5030409;28;20061;-44
2023/05/03 00:42:20;;;;;;;8.00;5.27;;;11.10;77.70;;;14.06;48.56;98426.59;5029810;28;20048;-44
2023/05/03 00:44:47;;;;;;;6.23;5.37;;;11.00;77.50;;;14.06;48.42;98425.78;5029872;28;20056;-46
2023/05/03 00:47:16;;;;;;;7.03;4.30;;;11.00;77.70;;;13.98;48.35;98416.72;5029953;28;20420;-47
2023/05/03 00:49:44;;;;;;;6.80;4.47;;;10.90;77.80;;;13.96;48.84;98410.69;5032006;28;20045;-46
2023/05/03 00:52:12;;;;;;;7.27;4.53;;;10.80;78.10;;;13.91;48.80;98414.84;5030982;28;20048;-44
2023/05/03 00:54:40;;;;;;;6.27;4.47;;;10.80;78.10;;;13.89;48.63;98408.81;5031151;28;20037;-45
2023/05/03 00:57:07;;;;;;;8.03;4.93;;;10.80;78.30;;;13.86;48.80;98407.31;5029441;28;20049;-46
2023/05/03 00:59:36;;;;;;;6.13;4.60;;;10.80;78.20;;;13.83;48.99;98409.47;5030010;28;20049;-45
2023/05/03 01:02:04;;;;;;;5.10;4.57;;;10.80;78.50;;;13.75;49.09;98404.94;5029850;28;20041;-46
2023/05/03 01:04:32;;;;;;;8.57;5.33;;;10.60;79.00;;;13.66;49.18;98409.41;5029786;28;20505;-44
2023/05/03 01:07:22;;;;;;;6.73;4.57;;;10.50;79.80;;;13.58;49.05;98410.22;5029641;28;20057;-46
2023/05/03 01:10:00;;;;;;;6.83;4.77;;;10.50;80.50;;;13.59;48.93;98403.06;5024313;28;20045;-44
2023/05/03 01:12:52;;;;;;;6.30;5.10;;;10.50;80.40;;;13.57;48.92;98408.56;5029612;28;20041;-43
2023/05/03 01:15:43;;;;;;;7.33;5.27;;;10.50;80.60;;;13.59;49.09;98409.25;5030651;28;20117;-45
2023/05/03 01:18:17;;;;;;;8.47;4.97;;;10.60;79.60;;;13.56;49.26;98408.72;5030794;28;20034;-44
2023/05/03 01:20:48;;;;;;;8.70;5.33;;;10.60;79.10;;;13.52;49.25;98402.84;5022339;28;20045;-45
2023/05/03 01:24:03;;;;;;;7.17;5.40;;;10.50;79.40;;;13.52;48.97;98407.38;5029718;28;20037;-44
2023/05/03 01:26:32;;;;;;;7.13;4.78;;;10.60;79.50;;;13.53;49.19;98406.34;5028026;28;20494;-44
2023/05/03 01:28:59;;;;;;;7.23;5.60;;;10.60;78.90;;;13.43;49.37;98408.31;5029633;28;20060;-44
2023/05/03 01:31:52;;;;;;;8.47;5.07;;;10.50;79.50;;;13.38;49.60;98412.31;5028994;28;20042;-45
2023/05/03 01:35:07;;;;;;;9.30;5.17;;;10.40;80.30;;;13.32;49.70;98412.97;5029624;28;20049;-44
2023/05/03 01:37:36;;;;;;;9.53;5.80;;;10.20;81.10;;;13.25;49.57;98409.22;5029172;28;20052;-44
2023/05/03 01:40:07;;;;;;;11.40;5.03;;;10.10;81.70;;;13.21;49.74;98407.88;5013267;28;20484;-44
2023/05/03 01:42:37;;;;;;;7.87;5.83;;;10.00;82.10;;;13.17;49.71;98396.66;5031727;28;20497;-45
2023/05/03 01:45:06;;;;;;;9.00;5.33;;;10.00;82.30;;;13.17;49.82;98398.50;5017141;28;20048;-44
2023/05/03 01:47:33;;;;;;;14.27;5.77;;;10.00;82.20;;;13.14;50.04;98396.13;5033084;28;20062;-44
2023/05/03 01:50:01;;;;;;;7.00;4.80;;;10.00;82.30;;;13.12;50.02;98395.44;5016750;28;20048;-45
2023/05/03 01:52:30;;;;;;;7.10;5.20;;;10.00;82.40;;;13.07;49.86;98389.75;5033052;28;20053;-44
2023/05/03 01:54:58;;;;;;;7.43;5.17;;;10.00;82.60;;;13.04;50.11;98393.56;5034802;28;20059;-45
2023/05/03 01:57:26;;;;;;;7.50;5.07;;;9.90;82.80;;;12.99;49.97;98396.72;5032942;28;20421;-44
2023/05/03 01:59:54;;;;;;;8.77;5.20;;;9.80;82.70;;;12.95;50.42;98400.72;5032958;28;20049;-44
2023/05/03 02:02:21;;;;;;;6.83;5.40;;;9.80;84.20;;;12.86;50.38;98400.81;5033454;28;20048;-44
2023/05/03 02:04:49;;;;;;;8.47;5.90;;;9.60;85.10;;;12.79;50.66;98400.59;5032579;28;20069;-45
2023/05/03 02:07:18;;;;;;;9.57;6.40;;;9.50;86.40;;;12.73;50.99;98403.91;5032901;28;20052;-45
2023/05/03 02:09:45;;;;;;;7.63;5.40;;;9.50;86.80;;;12.72;50.58;98405.75;5025302;28;20050;-45
2023/05/03 02:12:13;;;;;;;7.57;5.17;;;9.50;87.20;;;12.72;50.66;98407.56;5033017;28;20060;-44
2023/05/03 02:14:40;;;;;;;11.27;5.63;;;9.40;87.10;;;12.70;50.99;98401.56;5032471;28;20057;-46
2023/05/03 02:17:09;;;;;;;8.20;5.17;;;9.50;87.20;;;12.68;50.73;98400.84;5033168;28;20042;-44
2023/05/03 02:19:37;;;;;;;8.70;5.77;;;9.40;87.20;;;12.67;50.67;98399.19;5033228;28;20045;-44
2023/05/03 02:22:06;;;;;;;8.33;5.67;;;9.50;87.30;;;12.66;50.72;98393.00;5034172;28;20401;-44
2023/05/03 02:24:35;;;;;;;8.07;5.37;;;9.60;87.00;;;12.68;50.96;98387.47;5032294;28;20064;-44
2023/05/03 02:27:03;;;;;;;8.23;4.97;;;9.60;86.40;;;12.67;50.49;98392.00;5033704;28;20045;-44
2023/05/03 02:29:32;;;;;;;7.73;4.90;;;9.60;86.10;;;12.66;50.65;98394.81;5032842;28;20045;-46
2023/05/03 02:32:04;;;;;;;8.67;5.53;;;9.60;86.00;;;12.65;50.52;98395.84;5032559;28;20500;-44
2023/05/03 02:34:32;;;;;;;31.57;21.30;;;9.50;85.90;;;12.64;50.80;98391.47;5032249;28;20052;-45
2023/05/03 02:37:00;;;;;;;17.10;10.97;;;9.50;86.10;;;12.63;50.92;98385.28;5031570;28;20052;-45
2023/05/03 02:39:29;;;;;;;10.70;6.37;;;9.60;85.90;;;12.64;50.55;98387.00;5032346;28;20046;-46
2023/05/03 02:41:57;;;;;;;8.27;6.23;;;9.60;85.40;;;12.62;50.75;98383.63;5034407;28;20046;-45
2023/05/03 02:44:25;;;;;;;8.37;6.30;;;9.60;85.10;;;12.60;50.73;98378.44;5033967;28;20029;-47
2023/05/03 02:46:53;;;;;;;9.10;5.73;;;9.60;85.10;;;12.55;50.72;98379.91;5033179;28;20041;-47
2023/05/03 02:49:22;;;;;;;10.57;6.60;;;9.50;85.20;;;12.55;50.77;98383.41;5033940;28;20403;-44
2023/05/03 02:51:51;;;;;;;11.37;6.50;;;9.40;85.30;;;12.53;50.72;98385.38;5025172;28;20333;-44
2023/05/03 02:54:19;;;;;;;9.60;6.13;;;9.50;85.80;;;12.51;50.84;98387.38;5031990;28;20052;-46
2023/05/03 02:56:46;;;;;;;8.80;6.13;;;9.40;85.10;;;12.49;50.83;98380.53;5032949;28;20033;-46
2023/05/03 02:59:14;;;;;;;10.90;6.87;;;9.50;85.30;;;12.46;50.77;98386.16;5033600;28;20037;-45
2023/05/03 03:01:42;;;;;;;9.30;5.90;;;9.40;85.00;;;12.45;50.80;98389.84;5032497;28;20294;-43
2023/05/03 03:04:10;;;;;;;10.90;6.40;;;9.40;84.90;;;12.43;50.75;98387.31;5032245;28;20204;-44
2023/05/03 03:06:37;;;;;;;10.13;5.93;;;9.40;85.10;;;12.38;50.76;98386.94;5031554;28;20611;-44
2023/05/03 03:09:05;;;;;;;10.30;6.20;;;9.30;85.30;;;12.34;50.96;98389.06;5031890;28;20050;-45
2023/05/03 03:11:34;;;;;;;12.77;6.90;;;9.30;86.10;;;12.31;51.12;98388.53;5031523;28;20517;-45
2023/05/03 03:14:02;;;;;;;10.33;6.00;;;9.20;86.20;;;12.30;50.91;98390.38;5033298;28;20041;-50
2023/05/03 03:16:30;;;;;;;8.73;6.53;;;9.20;86.10;;;12.27;51.12;98393.38;5031848;28;20045;-44
2023/05/03 03:18:57;;;;;;;9.80;6.30;;;9.20;86.00;;;12.26;51.21;98393.53;5015003;28;20417;-45
2023/05/03 03:21:28;;;;;;;10.07;6.00;;;9.20;86.10;;;12.24;51.16;98395.50;5032906;28;20033;-46
2023/05/03 03:23:56;;;;;;;10.83;6.53;;;9.10;86.40;;;12.21;50.88;98388.63;5032753;28;20060;-45
2023/05/03 03:26:25;;;;;;;12.73;7.40;;;9.10;86.70;;;12.17;51.21;98381.91;5031394;28;20072;-44
2023/05/03 03:28:52;;;;;;;9.07;6.07;;;9.10;86.90;;;12.16;51.19;98389.09;5032276;28;20436;-46
2023/05/03 03:31:21;;;;;;;12.47;6.93;;;9.10;87.00;;;12.14;51.05;98388.41;5032233;28;20053;-44
2023/05/03 03:33:50;;;;;;;10.60;7.10;;;9.00;86.80;;;12.12;51.25;98389.56;5031479;28;20045;-45
2023/05/03 03:36:20;;;;;;;10.47;7.03;;;9.00;86.90;;;12.10;51.22;98395.06;5031857;28;20050;-45
2023/05/03 03:38:48;;;;;;;15.70;7.80;;;9.00;86.80;;;12.09;50.92;98395.19;5031023;28;20410;-48
2023/05/03 03:41:18;;;;;;;15.47;7.40;;;9.00;86.70;;;12.08;51.13;98391.69;5031455;28;20041;-45
2023/05/03 03:43:46;;;;;;;11.90;7.03;;;9.00;86.80;;;12.07;51.20;98400.69;5031546;28;20041;-45
2023/05/03 03:46:17;;;;;;;8.63;6.37;;;9.00;86.50;;;11.98;51.16;98393.59;5030725;28;20038;-45
2023/05/03 03:48:49;;;;;;;13.93;7.17;;;8.80;87.10;;;11.91;51.50;98405.88;5031341;28;20394;-45
2023/05/03 03:51:17;;;;;;;10.03;7.47;;;8.70;88.80;;;11.89;51.41;98403.34;5031183;28;20048;-45
2023/05/03 03:53:47;;;;;;;9.60;5.97;;;8.70;89.50;;;11.89;51.67;98408.69;5014973;28;20052;-45
2023/05/03 03:56:15;;;;;;;9.17;6.50;;;8.80;89.40;;;11.89;51.68;98410.50;5030716;28;20053;-45
2023/05/03 03:58:43;;;;;;;10.20;6.50;;;8.80;89.30;;;11.84;51.91;98408.25;5031243;28;20420;-49
2023/05/03 04:01:11;;;;;;;11.33;6.33;;;8.70;89.20;;;11.83;51.81;98417.25;5031270;28;20045;-45
2023/05/03 04:03:39;;;;;;;14.00;7.13;;;8.70;90.00;;;11.80;51.59;98418.38;5030802;28;20276;-46
2023/05/03 04:06:07;;;;;;;10.97;6.63;;;8.70;89.40;;;11.80;51.84;98414.88;5030860;28;20420;-45
2023/05/03 04:08:36;;;;;;;12.60;6.93;;;8.60;89.40;;;11.76;51.93;98416.19;5030618;28;20064;-45
2023/05/03 04:11:09;;;;;;;12.50;7.53;;;8.60;90.00;;;11.65;51.93;98416.38;5014606;28;20059;-44
2023/05/03 04:13:38;;;;;;;11.97;7.47;;;8.40;90.70;;;11.58;52.26;98416.16;5015319;28;20049;-45
2023/05/03 04:16:07;;;;;;;10.10;7.33;;;8.40;92.10;;;11.58;51.98;98424.97;5030446;28;20061;-45
2023/05/03 04:18:35;;;;;;;10.97;7.30;;;8.40;92.50;;;11.59;52.30;98424.00;5030333;28;20045;-46
2023/05/03 04:21:04;;;;;;;11.80;6.87;;;8.40;92.40;;;11.58;52.07;98422.31;5030630;28;20041;-47
2023/05/03 04:23:31;;;;;;;12.03;7.00;;;8.40;92.50;;;11.52;52.11;98422.91;5030545;28;20061;-45
2023/05/03 04:26:00;;;;;;;12.97;7.67;;;8.30;92.80;;;11.48;52.57;98434.03;5030522;28;20045;-45
2023/05/03 04:28:33;;;;;;;12.02;7.35;;;8.20;93.70;;;11.46;52.29;98433.31;5031161;28;20421;-44
2023/05/03 04:31:01;;;;;;;11.50;7.23;;;8.20;94.10;;;11.45;52.25;98429.81;5030348;28;20420;-45
2023/05/03 04:33:30;;;;;;;13.10;7.50;;;8.20;94.70;;;11.42;52.77;98424.78;5027672;28;20052;-46
2023/05/03 04:36:03;;;;;;;11.07;6.83;;;8.20;95.10;;;11.40;52.77;98430.25;5030312;28;20056;-45
2023/05/03 04:38:31;;;;;;;11.03;7.17;;;8.20;95.30;;;11.40;52.53;98426.78;5030068;28;20049;-46
2023/05/03 04:41:01;;;;;;;12.97;8.17;;;8.20;95.80;;;11.39;52.36;98427.75;5030719;28;20048;-46
2023/05/03 04:43:31;;;;;;;14.43;7.03;;;8.30;95.80;;;11.40;52.56;98430.25;5030578;28;20041;-44
2023/05/03 04:45:59;;;;;;;13.50;8.57;;;8.30;96.00;;;11.35;52.51;98423.69;5031307;28;20042;-44
2023/05/03 04:48:27;;;;;;;14.10;6.80;;;8.20;95.70;;;11.34;53.09;98430.84;5030136;28;20061;-45
2023/05/03 04:50:54;;;;;;;12.83;7.30;;;8.20;96.10;;;11.35;52.99;98432.53;5021728;28;20428;-44
2023/05/03 04:53:23;;;;;;;10.73;7.00;;;8.20;96.60;;;11.36;52.58;98444.00;5030548;28;20041;-45
2023/05/03 04:56:00;;;;;;;14.80;9.80;;;8.20;96.60;;;11.36;52.97;98433.34;5030082;28;20076;-45
2023/05/03 04:58:29;;;;;;;17.27;9.47;;;8.30;97.00;;;11.38;52.91;98432.25;5030081;28;20041;-44
2023/05/03 05:00:58;;;;;;;16.20;8.57;;;8.40;96.00;;;11.41;52.85;98433.75;5030040;28;20548;-44
2023/05/03 05:03:30;;;;;;;18.00;8.37;;;8.50;96.20;;;11.48;53.31;98436.69;5029652;28;20394;-45
2023/05/03 05:06:00;;;;;;;16.23;7.53;;;8.50;96.00;;;11.53;52.83;98432.56;5023153;28;20045;-44
2023/05/03 05:08:29;;;;;;;16.37;8.50;;;8.60;95.50;;;11.60;52.84;98443.50;5029894;28;20557;-46
2023/05/03 05:10:57;;;;;;;13.30;8.57;;;8.60;95.30;;;11.65;52.71;98441.25;5029943;28;20049;-45
2023/05/03 05:13:30;;;;;;;13.23;7.57;;;8.70;95.50;;;11.71;52.87;98437.13;5021900;28;20053;-45
2023/05/03 05:15:58;;;;;;;10.90;7.13;;;8.80;95.30;;;11.76;52.78;98434.84;5029618;28;20045;-45
2023/05/03 05:18:25;;;;;;;14.07;8.30;;;8.80;95.00;;;11.78;52.97;98444.38;5029378;28;20041;-47
2023/05/03 05:20:55;;;;;;;11.67;7.30;;;8.80;94.50;;;11.83;52.75;98443.94;5030443;28;20037;-46
2023/05/03 05:23:25;;;;;;;13.30;7.97;;;8.80;94.40;;;11.86;52.78;98445.47;5029520;28;20041;-46
2023/05/03 05:25:52;;;;;;;12.20;7.10;;;8.90;94.40;;;11.89;52.62;98446.03;5029481;28;20038;-45
2023/05/03 05:28:20;;;;;;;12.47;8.13;;;8.90;94.00;;;11.92;52.91;98444.88;5029522;28;20046;-47
2023/05/03 05:30:48;;;;;;;13.87;7.30;;;9.00;94.00;;;11.90;52.71;98438.88;5029410;28;20057;-46
2023/05/03 05:33:16;;;;;;;15.13;8.67;;;9.00;93.80;;;11.91;52.60;98444.06;5031482;28;20504;-48
2023/05/03 05:35:47;;;;;;;14.97;8.23;;;9.00;93.30;;;11.92;52.88;98450.22;5029595;28;20065;-45
2023/05/03 05:38:17;;;;;;;11.07;8.07;;;9.00;93.50;;;11.94;53.00;98446.44;5012650;28;20046;-47
2023/05/03 05:40:45;;;;;;;14.50;7.77;;;9.10;93.40;;;11.99;52.69;98446.81;5029344;28;20045;-46
2023/05/03 05:43:12;;;;;;;11.73;7.90;;;9.10;93.20;;;12.05;52.65;98456.03;5013465;28;20063;-47
2023/05/03 05:45:43;;;;;;;15.13;7.97;;;9.10;93.00;;;12.08;52.97;98447.75;5029331;28;20052;-46
2023/05/03 05:48:10;;;;;;;13.37;7.87;;;9.10;93.20;;;12.09;52.92;98443.25;5028895;28;20056;-45
2023/05/03 05:50:39;;;;;;;17.40;8.60;;;9.10;93.50;;;12.13;52.94;98449.94;5029545;28;20057;-45
2023/05/03 05:53:10;;;;;;;14.43;8.60;;;9.20;93.20;;;12.18;52.88;98450.34;5029743;28;20448;-47
2023/05/03 05:55:43;;;;;;;16.30;8.63;;;9.20;93.10;;;12.23;52.72;98449.88;5029027;28;20049;-49
2023/05/03 05:58:12;;;;;;;14.73;8.87;;;9.30;93.30;;;12.26;52.68;98452.25;5029238;28;20052;-46
2023/05/03 06:00:47;;;;;;;14.02;7.95;;;9.30;93.20;;;12.31;52.84;98447.28;5029472;28;20429;-45
2023/05/03 06:03:15;;;;;;;14.40;8.40;;;9.30;93.10;;;12.35;52.44;98452.19;5030765;28;20050;-47
2023/05/03 06:05:44;;;;;;;12.97;7.60;;;9.40;93.30;;;12.40;52.83;98449.88;5029051;28;20061;-47
2023/05/03 06:08:11;;;;;;;10.23;7.10;;;9.50;92.80;;;12.44;52.65;98450.41;5028782;28;20046;-46
2023/05/03 06:10:39;;;;;;;16.43;8.87;;;9.50;92.20;;;12.50;52.74;98448.97;5030582;28;20045;-48
2023/05/03 06:13:07;;;;;;;15.43;8.60;;;9.60;91.80;;;12.48;52.63;98449.09;5030756;28;20056;-46
2023/05/03 06:15:34;;;;;;;15.80;7.67;;;9.60;91.10;;;12.47;52.48;98452.78;5029215;28;20058;-48
2023/05/03 06:18:03;;;;;;;14.60;8.47;;;9.60;90.60;;;12.48;52.72;98450.94;5013076;28;20653;-46
2023/05/03 06:20:31;;;;;;;14.07;9.57;;;9.70;90.70;;;12.49;52.80;98449.97;5029470;28;20405;-48
2023/05/03 06:22:59;;;;;;;13.17;8.47;;;9.70;90.70;;;12.56;52.97;98453.69;5029805;28;20037;-46
2023/05/03 06:25:26;;;;;;;13.93;8.60;;;9.80;90.90;;;12.60;52.66;98450.56;5028930;28;20103;-46
2023/05/03 06:27:54;;;;;;;18.03;8.90;;;9.80;90.40;;;12.65;52.65;98443.91;5029068;28;20080;-46
2023/05/03 06:30:27;;;;;;;17.10;8.87;;;9.70;90.40;;;12.71;52.47;98451.31;5032942;28;20053;-46
2023/05/03 06:32:58;;;;;;;12.40;7.88;;;9.80;90.90;;;12.77;52.53;98456.03;5033111;28;20045;-47
2023/05/03 06:35:27;;;;;;;15.00;8.63;;;9.90;90.40;;;12.82;52.50;98456.41;5032871;28;20057;-46
2023/05/03 06:37:54;;;;;;;14.03;8.90;;;10.00;90.30;;;12.89;52.39;98467.28;5032525;28;20056;-46
2023/05/03 06:40:24;;;;;;;14.43;7.67;;;10.00;90.20;;;12.94;52.55;98462.34;5032226;28;20046;-46
2023/05/03 06:42:52;;;;;;;16.73;7.73;;;10.00;90.20;;;12.94;52.48;98465.00;5032589;28;20049;-45
2023/05/03 06:45:34;;;;;;;14.63;8.47;;;10.00;90.40;;;12.99;52.46;98462.72;5032798;28;20041;-45
2023/05/03 06:48:01;;;;;;;16.47;9.20;;;10.00;90.30;;;13.03;52.60;98450.72;5032700;28;20513;-47
2023/05/03 06:50:29;;;;;;;12.23;8.07;;;10.10;90.30;;;13.07;52.53;98465.44;5033765;28;20045;-45
2023/05/03 06:52:57;;;;;;;13.77;8.70;;;10.30;89.60;;;13.10;52.27;98458.94;5032694;28;20046;-47
2023/05/03 06:55:24;;;;;;;19.67;10.00;;;10.30;89.00;;;13.13;52.39;98450.59;5033224;28;20421;-47
2023/05/03 06:57:52;;;;;;;15.93;8.37;;;10.30;88.80;;;13.21;52.13;98445.28;5033197;28;20445;-45
2023/05/03 07:00:22;;;;;;;16.67;9.73;;;10.40;89.10;;;13.28;52.44;98446.34;5033565;28;20060;-48
2023/05/03 07:02:49;;;;;;;17.13;10.07;;;10.50;89.00;;;13.32;52.18;98441.56;5033535;28;20045;-46
2023/05/03 07:05:17;;;;;;;18.20;9.33;;;10.50;88.60;;;13.43;52.20;98437.75;5033013;28;20044;-46
2023/05/03 07:07:45;;;;;;;15.10;8.93;;;10.60;88.50;;;13.54;52.30;98442.81;5032904;28;20052;-48
2023/05/03 07:10:12;;;;;;;17.97;8.67;;;10.70;88.30;;;13.66;51.90;98441.53;5033766;28;20049;-46
2023/05/03 07:12:40;;;;;;;11.47;7.67;;;10.80;88.00;;;13.76;52.05;98436.91;5033033;28;20041;-47
2023/05/03 07:15:09;;;;;;;13.03;9.00;;;10.90;87.60;;;13.89;51.47;98435.59;5032139;28;20056;-46
2023/05/03 07:17:36;;;;;;;16.37;8.70;;;11.00;86.90;;;14.02;51.70;98440.50;5032858;28;20045;-47
2023/05/03 07:20:05;;;;;;;13.50;8.50;;;11.20;86.60;;;14.12;51.69;98430.47;5033196;28;20029;-47
2023/05/03 07:22:33;;;;;;;15.87;9.60;;;11.30;85.70;;;14.28;51.43;98427.78;5033110;28;20025;-45
2023/05/03 07:25:03;;;;;;;15.60;8.37;;;11.40;85.00;;;14.40;51.23;98430.97;5031699;28;20048;-46
2023/05/03 07:27:31;;;;;;;14.80;8.63;;;11.60;84.30;;;14.40;50.85;98430.97;5032685;28;20049;-46
2023/05/03 07:29:59;;;;;;;14.37;9.53;;;11.50;84.10;;;14.48;50.93;98424.78;5033047;28;20045;-45
2023/05/03 07:32:27;;;;;;;16.50;8.67;;;11.70;83.60;;;14.56;50.78;98422.13;5031878;28;20048;-47
2023/05/03 07:34:54;;;;;;;17.20;9.80;;;11.70;82.80;;;14.67;50.94;98429.00;5029811;28;20358;-45
2023/05/03 07:37:22;;;;;;;12.98;7.72;;;11.90;82.50;;;14.77;50.53;98418.94;5032558;28;20112;-46
2023/05/03 07:39:49;;;;;;;15.27;8.73;;;12.00;81.80;;;14.89;50.39;98427.50;5031319;28;20535;-46
2023/05/03 07:42:17;;;;;;;13.35;8.35;;;12.10;81.40;;;14.94;50.36;98423.28;5032624;28;20041;-46
2023/05/03 07:44:45;;;;;;;15.23;9.27;;;12.20;81.30;;;15.04;50.21;98424.94;5032560;28;20049;-46
2023/05/03 07:47:12;;;;;;;16.10;9.13;;;12.20;81.00;;;15.14;50.28;98415.72;5032373;28;20417;-44
2023/05/03 07:49:40;;;;;;;16.00;8.98;;;12.30;80.60;;;15.27;50.17;98419.69;5032123;28;20049;-48
2023/05/03 07:52:08;;;;;;;13.20;8.55;;;12.50;80.20;;;15.38;49.89;98423.88;5032497;28;20045;-47
2023/05/03 07:54:36;;;;;;;18.42;9.40;;;12.60;79.30;;;15.45;49.63;98416.78;5032333;28;20060;-45
2023/05/03 07:57:05;;;;;;;15.60;8.88;;;12.70;78.60;;;15.55;49.57;98420.13;5032074;28;20046;-44
2023/05/03 07:59:32;;;;;;;12.73;8.55;;;12.70;78.60;;;15.67;49.44;98424.06;5032316;28;20049;-44
2023/05/03 08:02:00;;;;;;;11.98;8.93;;;12.80;78.50;;;15.77;49.29;98425.75;5032714;28;20054;-47
2023/05/03 08:04:28;;;;;;;15.18;9.75;;;12.90;77.90;;;15.82;48.94;98424.22;5031822;28;20042;-46
2023/05/03 08:07:03;;;;;;;14.55;9.13;;;13.00;77.40;;;15.88;49.00;98420.00;5030608;28;20045;-46
2023/05/03 08:09:30;;;;;;;12.52;8.18;;;13.10;77.40;;;15.92;48.79;98415.94;5032223;28;20037;-44
2023/05/03 08:11:58;;;;;;;15.02;8.68;;;13.10;76.90;;;15.91;49.12;98415.09;5032025;28;20049;-46
2023/05/03 08:14:26;;;;;;;14.95;9.02;;;13.10;76.60;;;15.98;48.70;98417.09;5031974;28;20068;-45
2023/05/03 08:16:54;;;;;;;12.43;8.82;;;13.20;76.10;;;15.97;48.63;98416.22;5031413;28;20045;-45
2023/05/03 08:19:21;;;;;;;14.18;9.23;;;13.20;75.50;;;16.00;48.77;98423.13;5031886;28;20420;-45
2023/05/03 08:21:53;;;;;;;16.42;9.20;;;13.10;76.20;;;16.02;48.55;98413.84;5030666;28;20045;-45
2023/05/03 08:24:21;;;;;;;15.15;8.65;;;13.10;76.30;;;16.09;48.52;98412.16;5031920;28;20417;-45
2023/05/03 08:26:49;;;;;;;18.10;10.40;;;13.30;76.00;;;16.19;48.32;98419.13;5030117;28;20077;-45
2023/05/03 08:29:17;;;;;;;16.02;10.07;;;13.40;75.70;;;16.27;48.45;98419.91;5031627;28;20050;-45
2023/05/03 08:31:45;;;;;;;14.07;9.40;;;13.50;75.60;;;16.34;48.30;98420.88;5031609;28;20046;-45
2023/05/03 08:34:12;;;;;;;13.57;10.13;;;13.60;74.90;;;16.37;48.09;98418.84;5031743;28;20420;-44
2023/05/03 08:36:40;;;;;;;14.05;9.40;;;13.60;74.80;;;16.28;48.26;98418.88;5031175;28;20049;-45
2023/05/03 08:39:09;;;;;;;13.80;9.23;;;13.60;74.70;;;16.28;48.36;98416.19;5024178;28;20048;-45
2023/05/03 08:41:39;;;;;;;13.48;9.20;;;13.60;74.80;;;16.26;48.14;98414.72;5031608;28;20540;-44
2023/05/03 08:44:10;;;;;;;15.43;9.68;;;13.50;73.80;;;16.26;48.11;98418.22;5031644;28;20402;-45
2023/05/03 08:46:37;;;;;;;12.32;9.52;;;13.50;74.10;;;16.27;48.25;98424.44;5030343;28;20041;-44
2023/05/03 08:49:06;;;;;;;14.48;9.07;;;13.50;74.60;;;16.40;48.42;98430.06;5014246;28;20426;-45
2023/05/03 08:51:39;;;;;;;15.05;9.30;;;13.70;74.70;;;16.54;48.12;98431.97;5029738;28;20062;-45
2023/05/03 08:54:07;;;;;;;15.87;9.60;;;13.80;73.00;;;16.43;47.71;98426.19;5030418;28;20052;-47
2023/05/03 08:56:42;;;;;;;16.25;10.02;;;13.60;73.40;;;16.33;47.86;98434.47;5013467;28;20295;-45
2023/05/03 08:59:10;;;;;;;13.98;9.60;;;13.40;74.20;;;16.35;48.28;98432.44;5029987;28;20068;-47
2023/05/03 09:01:40;;;;;;;15.85;10.65;;;13.50;75.00;;;16.36;48.28;98438.66;5031239;28;20072;-45
2023/05/03 09:04:10;;;;;;;16.77;9.00;;;13.60;74.80;;;16.44;48.28;98433.22;5029480;28;20037;-46
2023/05/03 09:06:38;;;;;;;16.15;9.70;;;13.70;74.30;;;16.48;47.93;98427.31;5029865;28;20049;-45
2023/05/03 09:09:07;;;;;;;15.95;10.43;;;13.90;73.90;;;16.59;47.87;98425.22;5031192;28;20038;-46
2023/05/03 09:11:37;;;;;;;16.05;9.85;;;13.90;73.30;;;16.71;47.87;98426.44;5031074;28;20046;-47
2023/05/03 09:14:15;;;;;;;14.65;10.05;;;14.00;73.40;;;16.83;47.81;98426.91;5029210;28;20042;-45
2023/05/03 09:16:45;;;;;;;14.93;9.10;;;14.20;72.60;;;16.88;47.55;98424.47;5030774;28;20543;-45
2023/05/03 09:19:14;;;;;;;14.20;10.07;;;14.30;72.40;;;16.94;47.53;98431.81;5023595;28;20057;-44
2023/05/03 09:21:48;;;;;;;14.60;9.80;;;14.40;71.70;;;17.00;47.54;98428.41;5031071;28;20046;-43
2023/05/03 09:24:20;;;;;;;13.55;8.95;;;14.40;72.10;;;17.06;47.46;98432.19;5023867;28;20409;-44
2023/05/03 09:26:50;;;;;;;12.80;9.32;;;14.40;72.00;;;17.15;46.87;98427.59;5030494;28;20053;-46
2023/05/03 09:29:34;;;;;;;12.45;9.18;;;14.50;71.20;;;17.22;46.75;98426.66;5030072;28;20073;-45
2023/05/03 09:32:05;;;;;;;13.13;9.90;;;14.50;68.70;;;17.27;46.37;98420.72;5030659;28;20425;-44
2023/05/03 09:34:34;;;;;;;12.38;9.57;;;14.40;70.20;;;17.33;46.45;98422.66;5029358;28;20057;-45
2023/05/03 09:37:01;;;;;;;21.23;10.80;;;14.50;70.80;;;17.48;46.41;98420.81;5030594;28;20045;-44
2023/05/03 09:39:29;;;;;;;14.68;9.18;;;14.70;70.70;;;17.62;46.16;98418.28;5031013;28;20469;-46
2023/05/03 09:41:57;;;;;;;12.60;8.82;;;14.90;70.10;;;17.77;46.04;98410.19;5029433;28;20053;-44
2023/05/03 09:44:43;;;;;;;15.93;9.35;;;15.10;69.40;;;17.79;46.07;98416.22;5029829;28;20037;-44
2023/05/03 09:47:11;;;;;;;12.73;9.35;;;15.30;67.70;;;17.94;46.05;98416.25;5045999;28;20053;-45
2023/05/03 09:49:38;;;;;;;14.68;9.88;;;15.40;68.70;;;17.93;45.90;98411.88;5030520;28;20061;-45
2023/05/03 09:52:07;;;;;;;11.95;8.52;;;15.40;67.90;;;17.93;45.61;98419.94;5030652;28;20057;-45
2023/05/03 09:54:35;;;;;;;13.32;8.60;;;15.40;66.70;;;17.88;45.66;98418.66;5030450;28;20417;-44
2023/05/03 09:57:06;;;;;;;12.90;9.57;;;15.30;68.00;;;18.03;46.02;98407.00;5030386;28;20188;-45
2023/05/03 09:59:36;;;;;;;13.52;9.20;;;15.50;68.40;;;18.12;45.93;98411.25;5030682;28;20097;-44
2023/05/03 10:02:07;;;;;;;12.57;8.25;;;15.60;68.10;;;18.22;45.20;98416.31;5030992;28;20045;-46
2023/05/03 10:04:47;;;;;;;16.75;8.48;;;15.70;66.80;;;18.30;45.13;98403.56;5033109;28;20050;-44
2023/05/03 10:07:18;;;;;;;13.23;9.55;;;15.80;66.00;;;18.39;44.79;98404.28;5033108;28;20048;-47
2023/05/03 10:09:47;;;;;;;13.07;9.02;;;15.90;65.50;;;18.53;44.94;98416.00;5034557;28;20053;-44
2023/05/03 10:12:18;;;;;;;12.40;8.63;;;16.10;66.10;;;18.54;44.00;98409.59;5026836;28;20049;-44
2023/05/03 10:14:48;;;;;;;12.32;9.30;;;16.00;63.90;;;18.62;44.39;98404.06;5034157;28;20053;-44
2023/05/03 10:17:30;;;;;;;10.15;8.82;;;16.00;64.70;;;18.69;44.18;98407.66;5032942;28;20412;-47
2023/05/03 10:20:32;;;;;;;11.45;8.07;;;16.10;63.30;;;18.55;43.38;98405.03;5033347;28;20046;-45
2023/05/03 10:23:12;;;;;;;13.05;8.98;;;15.80;62.60;;;18.58;43.92;98405.47;5033002;28;20038;-44
2023/05/03 10:26:06;;;;;;;12.35;7.63;;;15.80;63.60;;;18.66;44.12;98399.94;5032710;28;20049;-45
2023/05/03 10:28:33;;;;;;;11.53;8.33;;;16.00;63.00;;;18.74;43.93;98398.16;5028345;28;20056;-44